createdAt,value
2018-04-02T00:01:43.698Z,69450.80
2018-04-02T00:04:12.018Z,69441.67
2018-04-02T00:06:40.354Z,69442.28
2018-04-02T00:09:08.774Z,69442.78
2018-04-02T00:11:37.118Z,69443.59
2018-04-02T00:14:05.438Z,69443.06
2018-04-02T00:16:33.777Z,69447.59
2018-04-02T00:19:02.099Z,69447.50
2018-04-02T00:21:30.433Z,69446.59
2018-04-02T00:23:58.782Z,69434.47
2018-04-02T00:26:27.121Z,69411.61
2018-04-02T00:28:55.450Z,69410.22
2018-04-02T00:31:23.762Z,69409.21
2018-04-02T00:33:52.105Z,69423.73
2018-04-02T00:36:20.422Z,69434.56
2018-04-02T00:38:48.758Z,69442.30
2018-04-02T00:41:17.077Z,69440.69
2018-04-02T00:43:45.414Z,69441.39
2018-04-02T00:46:14.050Z,69438.77
2018-04-02T00:48:42.390Z,69439.98
2018-04-02T00:51:10.710Z,69438.97
2018-04-02T00:53:39.053Z,69443.37
2018-04-02T00:56:07.380Z,69454.05
2018-04-02T00:58:35.723Z,69446.06
2018-04-02T01:01:04.041Z,69445.89
2018-04-02T01:03:32.382Z,69441.99
2018-04-02T01:06:00.710Z,69443.20
2018-04-02T01:08:29.046Z,69449.72
2018-04-02T01:10:57.366Z,69448.20
2018-04-02T01:13:25.710Z,69442.28
2018-04-02T01:15:54.026Z,69447.50
2018-04-02T01:18:22.370Z,69440.46
2018-04-02T01:20:50.762Z,69439.67
2018-04-02T01:23:19.098Z,69440.59
2018-04-02T01:25:47.414Z,69431.64
2018-04-02T01:28:15.758Z,69429.77
2018-04-02T01:30:44.074Z,69434.38
2018-04-02T01:33:12.415Z,69421.95
2018-04-02T01:35:40.734Z,69428.34
2018-04-02T01:38:09.074Z,69430.87
2018-04-02T01:40:37.393Z,69430.65
2018-04-02T01:43:05.733Z,69437.08
2018-04-02T01:45:34.049Z,69434.56
2018-04-02T01:48:02.390Z,69431.16
2018-04-02T01:50:30.710Z,69432.86
2018-04-02T01:52:59.050Z,69433.47
2018-04-02T01:55:27.374Z,69435.36
2018-04-02T01:57:55.714Z,69436.55
2018-04-02T02:00:24.029Z,69436.96
2018-04-02T02:02:52.374Z,69444.30
2018-04-02T02:05:20.694Z,69432.46
2018-04-02T02:07:49.035Z,69435.95
2018-04-02T02:10:17.402Z,69441.59
2018-04-02T02:12:45.749Z,69434.16
2018-04-02T02:15:14.072Z,69443.30
2018-04-02T02:17:42.408Z,69445.91
2018-04-02T02:20:10.726Z,69440.91
2018-04-02T02:22:39.066Z,69436.09
2018-04-02T02:25:07.386Z,69449.59
2018-04-02T02:27:35.734Z,69481.50
2018-04-02T02:30:04.058Z,69485.88
2018-04-02T02:32:32.367Z,69505.84
2018-04-02T02:35:00.752Z,69524.90
2018-04-02T02:37:29.027Z,69533.13
2018-04-02T02:39:57.367Z,69528.80
2018-04-02T02:42:25.690Z,69544.08
2018-04-02T02:44:54.030Z,69545.47
2018-04-02T02:47:22.342Z,69548.95
2018-04-02T02:49:50.683Z,69550.98
2018-04-02T02:52:19.006Z,69553.86
2018-04-02T02:54:47.363Z,69554.47
2018-04-02T02:57:15.688Z,69551.47
2018-04-02T02:59:44.031Z,69557.30
2018-04-02T03:02:12.381Z,69555.78
2018-04-02T03:04:40.726Z,69544.77
2018-04-02T03:07:09.043Z,69546.95
2018-04-02T03:09:37.407Z,69549.25
2018-04-02T03:12:05.805Z,69557.31
2018-04-02T03:14:34.182Z,69551.87
2018-04-02T03:17:02.512Z,69544.16
2018-04-02T03:19:30.937Z,69541.46
2018-04-02T03:21:59.263Z,69529.12
2018-04-02T03:24:27.610Z,69531.11
2018-04-02T03:26:55.961Z,69533.81
2018-04-02T03:29:24.306Z,69533.11
2018-04-02T03:31:52.629Z,69534.34
2018-04-02T03:34:20.970Z,69524.67
2018-04-02T03:36:49.298Z,69518.75
2018-04-02T03:39:17.637Z,69520.28
2018-04-02T03:41:45.962Z,69517.68
2018-04-02T03:44:14.404Z,69513.45
2018-04-02T03:46:42.721Z,69505.92
2018-04-02T03:49:11.062Z,69490.72
2018-04-02T03:51:39.386Z,69488.80
2018-04-02T03:54:07.729Z,69497.43
2018-04-02T03:56:36.050Z,69500.94
2018-04-02T03:59:04.390Z,69488.20
2018-04-02T04:01:32.738Z,69484.38
2018-04-02T04:04:01.083Z,69480.45
2018-04-02T04:06:29.490Z,69484.80
2018-04-02T04:08:57.829Z,69488.80
2018-04-02T04:11:26.151Z,69483.58
2018-04-02T04:13:54.493Z,69475.26
2018-04-02T04:16:22.810Z,69479.27
2018-04-02T04:18:51.156Z,69479.45
2018-04-02T04:21:19.550Z,69487.91
2018-04-02T04:23:47.893Z,69486.98
2018-04-02T04:26:16.214Z,69484.80
2018-04-02T04:28:44.581Z,69482.58
2018-04-02T04:31:12.900Z,69482.38
2018-04-02T04:33:41.213Z,69476.34
2018-04-02T04:36:09.559Z,69474.83
2018-04-02T04:38:37.921Z,69477.05
2018-04-02T04:41:06.358Z,69478.56
2018-04-02T04:43:34.677Z,69475.36
2018-04-02T04:46:03.019Z,69475.77
2018-04-02T04:48:31.337Z,69469.14
2018-04-02T04:50:59.685Z,69471.06
2018-04-02T04:53:28.047Z,69470.64
2018-04-02T04:55:56.390Z,69465.83
2018-04-02T04:58:24.794Z,69463.41
2018-04-02T05:00:53.134Z,69469.37
2018-04-02T05:03:21.554Z,69459.01
2018-04-02T05:05:49.926Z,69447.20
2018-04-02T05:08:18.250Z,69430.55
2018-04-02T05:10:46.685Z,69432.06
2018-04-02T05:13:15.003Z,69438.45
2018-04-02T05:15:43.337Z,69437.48
2018-04-02T05:18:11.658Z,69425.73
2018-04-02T05:20:40.095Z,69418.52
2018-04-02T05:23:08.469Z,69423.25
2018-04-02T05:25:36.901Z,69426.95
2018-04-02T05:28:05.203Z,69412.83
2018-04-02T05:30:33.547Z,69397.88
2018-04-02T05:33:01.882Z,69400.61
2018-04-02T05:35:30.223Z,69413.44
2018-04-02T05:37:58.533Z,69417.63
2018-04-02T05:40:26.906Z,69413.72
2018-04-02T05:42:55.328Z,69418.82
2018-04-02T05:45:23.655Z,69422.64
2018-04-02T05:47:52.039Z,69431.25
2018-04-02T05:50:20.414Z,69435.16
2018-04-02T05:52:48.729Z,69440.59
2018-04-02T05:55:17.080Z,69441.06
2018-04-02T05:57:45.399Z,69447.90
2018-04-02T06:00:13.738Z,69456.52
2018-04-02T06:02:42.058Z,69459.53
2018-04-02T06:05:10.403Z,69458.63
2018-04-02T06:07:38.750Z,69452.21
2018-04-02T06:10:07.082Z,69459.23
2018-04-02T06:12:35.507Z,69461.63
2018-04-02T06:15:03.882Z,69467.75
2018-04-02T06:17:32.258Z,69465.03
2018-04-02T06:20:00.594Z,69463.02
2018-04-02T06:22:28.967Z,69471.47
2018-04-02T06:24:57.286Z,69472.94
2018-04-02T06:27:25.605Z,69477.66
2018-04-02T06:29:54.049Z,69489.71
2018-04-02T06:32:22.366Z,69491.79
2018-04-02T06:34:50.690Z,69495.20
2018-04-02T06:37:19.029Z,69499.42
2018-04-02T06:39:47.451Z,69498.55
2018-04-02T06:42:15.826Z,69500.31
2018-04-02T06:44:44.141Z,69503.52
2018-04-02T06:47:12.486Z,69504.33
2018-04-02T06:49:40.910Z,69510.77
2018-04-02T06:52:09.237Z,69511.66
2018-04-02T06:54:37.556Z,69520.89
2018-04-02T06:57:05.990Z,69523.89
2018-04-02T06:59:34.315Z,69523.97
2018-04-02T07:02:02.654Z,69533.03
2018-04-02T07:04:31.033Z,69540.55
2018-04-02T07:06:59.326Z,69536.94
2018-04-02T07:09:27.654Z,69543.56
2018-04-02T07:11:56.050Z,69549.77
2018-04-02T07:14:24.321Z,69563.03
2018-04-02T07:16:52.662Z,69564.24
2018-04-02T07:19:20.982Z,69572.98
2018-04-02T07:21:49.370Z,69587.73
2018-04-02T07:24:17.738Z,69597.15
2018-04-02T07:26:46.086Z,69608.30
2018-04-02T07:29:14.410Z,69608.98
2018-04-02T07:31:42.761Z,69616.20
2018-04-02T07:34:11.149Z,69629.56
2018-04-02T07:36:39.514Z,69644.94
2018-04-02T07:39:07.841Z,69644.83
2018-04-02T07:41:36.185Z,69632.48
2018-04-02T07:44:04.541Z,69634.70
2018-04-02T07:46:33.821Z,69637.80
2018-04-02T07:49:02.155Z,69634.47
2018-04-02T07:51:30.498Z,69635.89
2018-04-02T07:53:58.826Z,69635.10
2018-04-02T07:56:28.069Z,69639.50
2018-04-02T07:58:56.398Z,69649.33
2018-04-02T08:01:24.749Z,69657.39
2018-04-02T08:03:53.098Z,69666.31
2018-04-02T08:06:21.442Z,69673.34
2018-04-02T08:08:49.772Z,69728.20
2018-04-02T08:11:18.151Z,69731.22
2018-04-02T08:13:46.514Z,69683.20
2018-04-02T08:16:14.866Z,69661.00
2018-04-02T08:18:43.189Z,69664.92
2018-04-02T08:21:11.534Z,69682.21
2018-04-02T08:23:39.870Z,69683.22
2018-04-02T08:26:08.221Z,69710.53
2018-04-02T08:28:36.558Z,69720.55
2018-04-02T08:31:04.942Z,69734.23
2018-04-02T08:33:33.278Z,69739.36
2018-04-02T08:36:01.697Z,69752.92
2018-04-02T08:38:30.079Z,69749.36
2018-04-02T08:40:58.415Z,69728.39
2018-04-02T08:43:26.780Z,69742.17
2018-04-02T08:45:55.111Z,69748.09
2018-04-02T08:48:24.054Z,69746.09
2018-04-02T08:50:52.378Z,69754.81
2018-04-02T08:53:20.738Z,69776.34
2018-04-02T08:55:49.083Z,69770.60
2018-04-02T08:58:17.437Z,69780.77
2018-04-02T09:00:45.854Z,69794.56
2018-04-02T09:03:14.180Z,69779.25
2018-04-02T09:05:42.514Z,69779.66
2018-04-02T09:08:11.694Z,69770.20
2018-04-02T09:10:40.030Z,69775.51
2018-04-02T09:13:08.381Z,69776.84
2018-04-02T09:15:36.730Z,69791.05
2018-04-02T09:18:05.091Z,69787.20
2018-04-02T09:20:33.430Z,69781.08
2018-04-02T09:23:01.799Z,69787.20
2018-04-02T09:25:30.134Z,69780.88
2018-04-02T09:27:58.494Z,69788.94
2018-04-02T09:30:26.825Z,69800.28
2018-04-02T09:32:55.184Z,69824.88
2018-04-02T09:35:23.522Z,69850.75
2018-04-02T09:37:51.958Z,69843.69
2018-04-02T09:40:20.293Z,69836.38
2018-04-02T09:42:48.641Z,69833.77
2018-04-02T09:45:17.077Z,69852.58
2018-04-02T09:47:45.472Z,69871.92
2018-04-02T09:50:13.844Z,69878.50
2018-04-02T09:52:42.198Z,69910.03
2018-04-02T09:55:11.570Z,69920.77
2018-04-02T09:57:39.922Z,69938.20
2018-04-02T10:00:08.258Z,69917.48
2018-04-02T10:02:36.631Z,69930.95
2018-04-02T10:05:06.045Z,69947.55
2018-04-02T10:07:34.260Z,69964.27
2018-04-02T10:10:02.772Z,69962.32
2018-04-02T10:12:31.059Z,69959.81
2018-04-02T10:14:59.395Z,69982.72
2018-04-02T10:17:27.834Z,69983.70
2018-04-02T10:19:56.176Z,69979.27
2018-04-02T10:22:24.554Z,69988.83
2018-04-02T10:24:52.885Z,69978.08
2018-04-02T10:27:21.347Z,69972.23
2018-04-02T10:29:49.754Z,69982.88
2018-04-02T10:32:18.039Z,69996.17
2018-04-02T10:34:46.381Z,70024.59
2018-04-02T10:37:14.771Z,70047.03
2018-04-02T10:39:43.111Z,70047.95
2018-04-02T10:42:11.446Z,70026.12
2018-04-02T10:44:39.874Z,70005.35
2018-04-02T10:47:08.250Z,70022.56
2018-04-02T10:49:36.603Z,70050.89
2018-04-02T10:52:04.933Z,70038.77
2018-04-02T10:54:33.281Z,70021.48
2018-04-02T10:57:01.617Z,70009.31
2018-04-02T10:59:30.002Z,69994.96
2018-04-02T11:01:58.422Z,70002.64
2018-04-02T11:04:26.777Z,70022.39
2018-04-02T11:06:55.118Z,70018.36
2018-04-02T11:09:23.472Z,70046.58
2018-04-02T11:11:51.810Z,70073.66
2018-04-02T11:14:20.196Z,70090.75
2018-04-02T11:16:48.514Z,70079.80
2018-04-02T11:19:16.966Z,70066.89
2018-04-02T11:21:45.348Z,70073.33
2018-04-02T11:24:13.694Z,70091.67
2018-04-02T11:26:42.097Z,70110.38
2018-04-02T11:29:10.444Z,70110.32
2018-04-02T11:31:38.774Z,70102.69
2018-04-02T11:34:07.127Z,70115.30
2018-04-02T11:36:36.418Z,70130.22
2018-04-02T11:39:05.626Z,70147.23
2018-04-02T11:41:33.978Z,70171.14
2018-04-02T11:44:02.376Z,70165.20
2018-04-02T11:46:31.670Z,70154.52
2018-04-02T11:49:00.025Z,70161.17
2018-04-02T11:51:28.353Z,70163.28
2018-04-02T11:53:56.697Z,70174.20
2018-04-02T11:56:25.981Z,70158.43
2018-04-02T11:58:54.381Z,70148.66
2018-04-02T12:01:22.710Z,70152.46
2018-04-02T12:03:51.055Z,70179.05
2018-04-02T12:06:20.289Z,70196.38
2018-04-02T12:08:48.670Z,70194.45
2018-04-02T12:11:17.022Z,70208.77
2018-04-02T12:13:45.369Z,70206.54
2018-04-02T12:16:13.729Z,70227.84
2018-04-02T12:18:42.087Z,70222.52
2018-04-02T12:21:10.414Z,70205.75
2018-04-02T12:23:38.762Z,70202.84
2018-04-02T12:26:07.147Z,70197.37
2018-04-02T12:28:35.494Z,70211.31
2018-04-02T12:31:03.826Z,70200.70
2018-04-02T12:33:32.288Z,70205.83
2018-04-02T12:36:00.606Z,70207.14
2018-04-02T12:38:29.026Z,70199.27
2018-04-02T12:40:57.362Z,70199.41
2018-04-02T12:43:25.777Z,70190.31
2018-04-02T12:45:54.109Z,70177.12
2018-04-02T12:48:22.443Z,70179.77
2018-04-02T12:50:50.786Z,70188.72
2018-04-02T12:53:19.146Z,70178.00
2018-04-02T12:55:47.494Z,70180.52
2018-04-02T12:58:15.823Z,70174.55
2018-04-02T13:00:44.174Z,70170.05
2018-04-02T13:03:12.614Z,70176.06
2018-04-02T13:05:40.946Z,70197.27
2018-04-02T13:08:09.273Z,70200.59
2018-04-02T13:10:37.745Z,70193.84
2018-04-02T13:13:06.003Z,70186.98
2018-04-02T13:15:48.298Z,70189.60
2018-04-02T13:18:17.915Z,70186.58
2018-04-02T13:20:46.270Z,70203.52
2018-04-02T13:23:14.599Z,70220.38
2018-04-02T13:25:42.950Z,70235.14
2018-04-02T13:28:11.283Z,70221.88
2018-04-02T13:30:39.707Z,70223.37
2018-04-02T13:33:08.023Z,70232.88
2018-04-02T13:35:36.370Z,70231.67
2018-04-02T13:38:04.698Z,70230.83
2018-04-02T13:40:33.098Z,70241.16
2018-04-02T13:43:01.431Z,70239.12
2018-04-02T13:45:29.782Z,70249.33
2018-04-02T13:47:58.106Z,70244.38
2018-04-02T13:50:26.459Z,70236.50
2018-04-02T13:52:55.121Z,70241.55
2018-04-02T13:55:23.556Z,70241.25
2018-04-02T13:57:51.960Z,70235.30
2018-04-02T14:00:20.258Z,70226.14
2018-04-02T14:02:48.603Z,70232.27
2018-04-02T14:05:16.946Z,70235.72
2018-04-02T14:07:45.278Z,70227.81
2018-04-02T14:10:13.629Z,70219.56
2018-04-02T14:12:41.966Z,70226.45
2018-04-02T14:15:10.319Z,70231.89
2018-04-02T14:17:38.647Z,70229.81
2018-04-02T14:20:07.000Z,70243.77
2018-04-02T14:22:35.326Z,70248.62
2018-04-02T14:25:03.692Z,70248.62
2018-04-02T14:27:32.064Z,70244.68
2018-04-02T14:30:00.415Z,70254.36
2018-04-02T14:32:28.753Z,70271.94
2018-04-02T14:34:57.124Z,70287.20
2018-04-02T14:37:45.026Z,70295.39
2018-04-02T14:40:19.329Z,70295.69
2018-04-02T14:45:30.939Z,70275.13
2018-04-02T14:48:04.354Z,70266.55
2018-04-02T14:50:40.961Z,70265.69
2018-04-02T14:53:09.550Z,70266.27
2018-04-02T14:55:37.953Z,70272.00
2018-04-02T14:58:06.283Z,70291.36
2018-04-02T15:00:34.637Z,70291.63
2018-04-02T15:03:02.987Z,70291.55
2018-04-02T15:05:31.345Z,70288.30
2018-04-02T15:07:59.665Z,70279.98
2018-04-02T15:10:28.042Z,70284.97
2018-04-02T15:12:56.565Z,70284.97
2018-04-02T15:15:25.072Z,70280.91
2018-04-02T15:17:53.490Z,70274.76
2018-04-02T15:20:21.850Z,70260.30
2018-04-02T15:22:50.201Z,70260.30
2018-04-02T15:25:19.381Z,70267.49
2018-04-02T15:27:47.718Z,70259.89
2018-04-02T15:30:16.070Z,70277.91
2018-04-02T15:32:44.394Z,70269.09
2018-04-02T15:35:12.746Z,70281.95
2018-04-02T15:37:41.074Z,70291.48
2018-04-02T15:40:09.442Z,70294.67
2018-04-02T15:42:37.780Z,70289.21
2018-04-02T15:45:06.111Z,70294.78
2018-04-02T15:47:34.457Z,70291.32
2018-04-02T15:50:02.831Z,70291.11
2018-04-02T15:52:31.380Z,70289.41
2018-04-02T15:54:59.769Z,70293.63
2018-04-02T15:57:28.127Z,70297.39
2018-04-02T15:59:56.454Z,70294.03
2018-04-02T16:02:24.815Z,70295.16
2018-04-02T16:04:53.137Z,70298.68
2018-04-02T16:07:21.492Z,70298.89
2018-04-02T16:09:49.846Z,70305.44
2018-04-02T16:12:18.242Z,70312.95
2018-04-02T16:14:46.579Z,70309.52
2018-04-02T16:17:14.935Z,70316.58
2018-04-02T16:19:43.272Z,70310.70
2018-04-02T16:22:11.631Z,70307.75
2018-04-02T16:24:40.019Z,70308.59
2018-04-02T16:27:08.366Z,70296.28
2018-04-02T16:29:36.702Z,70291.75
2018-04-02T16:32:05.055Z,70286.97
2018-04-02T16:34:33.381Z,70297.91
2018-04-02T16:37:01.864Z,70291.41
2018-04-02T16:39:30.242Z,70291.52
2018-04-02T16:41:58.893Z,70291.63
2018-04-02T16:44:27.602Z,70299.73
2018-04-02T16:46:56.890Z,70291.93
2018-04-02T16:49:25.222Z,70291.63
2018-04-02T16:51:53.574Z,70288.59
2018-04-02T16:54:21.915Z,70291.36
2018-04-02T16:56:51.262Z,70286.56
2018-04-02T16:59:19.594Z,70293.86
2018-04-02T17:01:47.938Z,70290.91
2018-04-02T17:04:16.271Z,70281.91
2018-04-02T17:06:44.623Z,70278.25
2018-04-02T17:09:12.949Z,70276.96
2018-04-02T17:11:41.298Z,70278.77
2018-04-02T17:14:09.642Z,70279.81
2018-04-02T17:16:37.978Z,70280.70
2018-04-02T17:19:06.405Z,70275.88
2018-04-02T17:21:34.815Z,70276.96
2018-04-02T17:24:03.193Z,70274.55
2018-04-02T17:26:32.634Z,70277.20
2018-04-02T17:29:00.966Z,70280.94
2018-04-02T17:31:29.315Z,70273.73
2018-04-02T17:33:57.650Z,70273.63
2018-04-02T17:36:26.918Z,70274.95
2018-04-02T17:38:55.269Z,70275.27
2018-04-02T17:41:23.615Z,70269.39
2018-04-02T17:43:51.942Z,70272.55
2018-04-02T17:46:20.334Z,70268.30
2018-04-02T17:48:48.677Z,70266.55
2018-04-02T17:51:17.010Z,70265.15
2018-04-02T17:53:45.351Z,70260.13
2018-04-02T17:56:13.737Z,70251.43
2018-04-02T17:58:42.022Z,70256.42
2018-04-02T18:01:10.363Z,70249.03
2018-04-02T18:03:38.710Z,70251.84
2018-04-02T18:06:07.042Z,70251.34
2018-04-02T18:08:35.438Z,70244.78
2018-04-02T18:11:03.766Z,70239.05
2018-04-02T18:13:32.122Z,70234.50
2018-04-02T18:16:00.586Z,70228.42
2018-04-02T18:18:28.936Z,70225.98
2018-04-02T18:20:57.262Z,70219.94
2018-04-02T18:23:25.611Z,70214.30
2018-04-02T18:25:53.983Z,70218.34
2018-04-02T18:28:22.331Z,70212.20
2018-04-02T18:30:50.680Z,70208.44
2018-04-02T18:33:19.027Z,70207.34
2018-04-02T18:35:47.452Z,70212.06
2018-04-02T18:38:15.829Z,70208.94
2018-04-02T18:40:44.100Z,70211.72
2018-04-02T18:43:12.442Z,70211.77
2018-04-02T18:45:40.803Z,70218.47
2018-04-02T18:48:09.173Z,70213.39
2018-04-02T18:50:37.494Z,70215.13
2018-04-02T18:53:05.846Z,70211.72
2018-04-02T18:55:34.178Z,70205.61
2018-04-02T18:58:02.527Z,70211.55
2018-04-02T19:00:30.846Z,70220.28
2018-04-02T19:02:59.194Z,70209.55
2018-04-02T19:05:27.607Z,70215.73
2018-04-02T19:07:55.957Z,70221.49
2018-04-02T19:10:24.277Z,70220.95
2018-04-02T19:12:53.786Z,70216.41
2018-04-02T19:15:23.358Z,70211.77
2018-04-02T19:17:51.714Z,70218.58
2018-04-02T19:20:22.557Z,70218.65
2018-04-02T19:22:50.843Z,70216.23
2018-04-02T19:25:19.167Z,70224.75
2018-04-02T19:27:47.515Z,70224.89
2018-04-02T19:30:15.839Z,70228.45
2018-04-02T19:32:44.181Z,70223.77
2018-04-02T19:35:12.508Z,70219.33
2018-04-02T19:37:40.849Z,70209.76
2018-04-02T19:40:09.872Z,70212.91
2018-04-02T19:42:38.221Z,70217.25
2018-04-02T19:45:06.538Z,70217.56
2018-04-02T19:47:34.889Z,70222.17
2018-04-02T19:50:03.211Z,70207.55
2018-04-02T19:52:31.570Z,70187.91
2018-04-02T19:54:59.887Z,70179.32
2018-04-02T19:57:28.206Z,70162.36
2018-04-02T19:59:56.713Z,70155.61
2018-04-02T20:02:25.366Z,70150.39
2018-04-02T20:04:53.706Z,70160.67
2018-04-02T20:07:22.027Z,70151.88
2018-04-02T20:09:50.367Z,70144.01
2018-04-02T20:12:18.715Z,70150.08
2018-04-02T20:14:47.070Z,70151.06
2018-04-02T20:17:15.394Z,70151.48
2018-04-02T20:19:44.225Z,70148.48
2018-04-02T20:22:12.546Z,70143.33
2018-04-02T20:24:40.891Z,70151.38
2018-04-02T20:27:09.202Z,70149.47
2018-04-02T20:29:37.671Z,70149.41
2018-04-02T20:32:05.981Z,70134.24
2018-04-02T20:34:34.433Z,70139.39
2018-04-02T20:37:02.802Z,70143.66
2018-04-02T20:39:31.309Z,70146.12
2018-04-02T20:41:59.634Z,70157.95
2018-04-02T20:44:28.022Z,70159.75
2018-04-02T20:46:56.339Z,70145.63
2018-04-02T20:49:24.690Z,70149.67
2018-04-02T20:51:53.102Z,70144.42
2018-04-02T20:54:21.453Z,70127.95
2018-04-02T20:56:50.662Z,70121.23
2018-04-02T20:59:19.000Z,70116.48
2018-04-02T21:01:47.312Z,70117.81
2018-04-02T21:04:15.655Z,70104.28
2018-04-02T21:06:44.990Z,70096.84
2018-04-02T21:09:13.318Z,70090.61
2018-04-02T21:11:41.630Z,70086.98
2018-04-02T21:14:09.973Z,70082.92
2018-04-02T21:16:38.286Z,70070.04
2018-04-02T21:19:07.554Z,70060.95
2018-04-02T21:21:35.870Z,70065.50
2018-04-02T21:24:04.214Z,70066.48
2018-04-02T21:26:32.529Z,70069.53
2018-04-02T21:29:02.463Z,70066.61
2018-04-02T21:31:30.794Z,70060.04
2018-04-02T21:33:59.138Z,70057.43
2018-04-02T21:36:27.458Z,70059.56
2018-04-02T21:38:56.008Z,70052.36
2018-04-02T21:41:24.326Z,70055.00
2018-04-02T21:43:52.671Z,70058.93
2018-04-02T21:46:21.962Z,70057.02
2018-04-02T21:48:50.351Z,70040.80
2018-04-02T21:51:18.666Z,70046.05
2018-04-02T21:53:47.009Z,70048.25
2018-04-02T21:56:15.345Z,70044.32
2018-04-02T21:58:43.678Z,70043.33
2018-04-02T22:01:12.003Z,70041.81
2018-04-02T22:03:40.313Z,70033.14
2018-04-02T22:09:03.856Z,70013.69
2018-04-02T22:11:32.174Z,70015.80
2018-04-02T22:14:00.526Z,70026.12
2018-04-02T22:16:29.641Z,70027.41
2018-04-02T22:18:57.974Z,70031.84
2018-04-02T22:21:26.291Z,70037.70
2018-04-02T22:23:54.644Z,70035.17
2018-04-02T22:26:23.946Z,70032.35
2018-04-02T22:28:52.267Z,70025.41
2018-04-02T22:31:20.606Z,70015.01
2018-04-02T22:33:48.926Z,70013.48
2018-04-02T22:36:17.351Z,70013.62
2018-04-02T22:38:45.729Z,70018.64
2018-04-02T22:41:14.070Z,70022.56
2018-04-02T22:43:42.382Z,70015.23
2018-04-02T22:46:10.724Z,70017.20
2018-04-02T22:48:39.042Z,70006.98
2018-04-02T22:51:07.389Z,70001.60
2018-04-02T22:53:35.710Z,69996.89
2018-04-02T22:56:04.051Z,69994.30
2018-04-02T22:58:32.365Z,70004.23
2018-04-02T23:01:00.702Z,70004.77
2018-04-02T23:03:29.019Z,70004.77
2018-04-02T23:05:57.357Z,70010.50
2018-04-02T23:08:25.687Z,70007.79
2018-04-02T23:10:54.906Z,70003.53
2018-04-02T23:13:23.230Z,70001.52
2018-04-02T23:15:51.576Z,69995.90
2018-04-02T23:18:19.894Z,69997.12
2018-04-02T23:20:48.243Z,69995.67
2018-04-02T23:23:16.567Z,69996.89
2018-04-02T23:25:44.904Z,69995.32
2018-04-02T23:28:13.221Z,69981.58
2018-04-02T23:30:41.562Z,69984.22
2018-04-02T23:33:09.890Z,69964.75
2018-04-02T23:35:38.236Z,69962.24
2018-04-02T23:38:06.553Z,69960.95
2018-04-02T23:40:34.895Z,69954.27
2018-04-02T23:43:03.215Z,69951.38
2018-04-02T23:45:31.558Z,69943.32
2018-04-02T23:47:59.877Z,69939.09
2018-04-02T23:50:28.209Z,69941.52
2018-04-02T23:52:56.534Z,69933.44
2018-04-02T23:55:24.878Z,69932.52
2018-04-02T23:57:53.198Z,69933.44
